| time (UTC) | temp F | wind direction | speed knots | gust knots | rain 1hr in | rain 24hr in | rain mn in | humidity % | barometer mb |
| 20260505153314 | 78 | 50 | 3.5 | 8.7 | 0.00 | 0.00 | 0.00 | 64 | 1015.1 |
| 20260505152813 | 78 | 63 | 3.5 | 8.7 | 0.00 | 0.00 | 0.00 | 64 | 1015.3 |
| 20260505152537 | 77 | 49 | 4.3 | 7.8 | 0.00 | 0.00 | 0.00 | 65 | 1015.3 |
| 20260505151812 | 77 | 56 | 4.3 | 7.8 | 0.00 | 0.00 | 0.00 | 65 | 1015.2 |
| 20260505151314 | 77 | 50 | 3.5 | 7.0 | 0.00 | 0.00 | 0.00 | 67 | 1015.1 |
| 20260505151038 | 77 | 57 | 3.5 | 7.0 | 0.00 | 0.00 | 0.00 | 67 | 1015.2 |
| 20260505150313 | 77 | 44 | 3.5 | 7.8 | 0.00 | 0.00 | 0.00 | 68 | 1015.2 |
| 20260505140309 | 75 | 92 | 3.5 | 7.0 | 0.00 | 0.00 | 0.00 | 71 | 1015.0 |
| 20260505130302 | 72 | 63 | 1.7 | 3.5 | 0.00 | 0.00 | 0.00 | 84 | 1015.0 |
| 20260505125009 | 70 | 65 | 0.9 | 3.5 | 0.00 | 0.00 | 0.00 | 86 | 1014.8 |
| 20260505124248 | 70 | 65 | 0.9 | 2.6 | 0.00 | 0.00 | 0.00 | 88 | 1014.8 |
| 20260505123748 | 69 | 76 | 0.0 | 2.6 | 0.00 | 0.00 | 0.00 | 89 | 1014.8 |
| 20260505123248 | 68 | 82 | 0.0 | 0.9 | 0.00 | 0.00 | 0.00 | 92 | 1014.8 |
| 20260505122746 | 67 | 1 | 0.0 | 0.9 | 0.00 | 0.00 | 0.00 | 94 | 1014.7 |
| 20260505122247 | 66 | 51 | 0.0 | 0.0 | 0.00 | 0.00 | 0.00 | 96 | 1014.6 |
| 20260505121747 | 66 | 51 | 0.0 | 0.0 | 0.00 | 0.00 | 0.00 | 98 | 1014.7 |
| 20260505121246 | 65 | 63 | 0.0 | 0.0 | 0.00 | 0.00 | 0.00 | 99 | 1014.7 |
| 20260505120747 | 65 | 84 | 0.0 | 0.0 | 0.00 | 0.00 | 0.00 | 100 | 1014.6 |
| 20260505120246 | 64 | 73 | 0.0 | 0.0 | 0.00 | 0.00 | 0.00 | 100 | 1014.4 |
| 20260505115746 | 63 | 356 | 0.0 | 0.0 | 0.00 | 0.00 | 0.00 | 100 | 1014.4 |
| 20260505115731 | 62 | 347 | 0.0 | 0.0 | 0.00 | 0.00 | 0.00 | 100 | 1014.4 |
| 20260505115002 | 62 | 347 | 0.0 | 0.0 | 0.00 | 0.00 | 0.00 | 100 | 1014.3 |
| 20260505114243 | 61 | 340 | 0.0 | 0.0 | 0.00 | 0.00 | 0.00 | 100 | 1014.3 |
| 20260505113738 | 60 | 341 | 0.0 | 0.0 | 0.00 | 0.00 | 0.00 | 100 | 1014.3 |
| 20260505113232 | 60 | 340 | 0.0 | 0.0 | 0.00 | 0.00 | 0.00 | 100 | 1014.4 |
| 20260505112724 | 58 | 340 | 0.0 | 0.0 | 0.00 | 0.00 | 0.00 | 100 | 1014.4 |
| 20260505112436 | 58 | 340 | 0.0 | 0.0 | 0.00 | 0.00 | 0.00 | 99 | 1014.4 |
| 20260505111713 | 58 | 341 | 0.0 | 0.0 | 0.00 | 0.00 | 0.00 | 100 | 1014.3 |
| 20260505111206 | 58 | 341 | 0.0 | 0.0 | 0.00 | 0.00 | 0.00 | 100 | 1014.2 |
| 20260505110701 | 58 | 341 | 0.0 | 0.0 | 0.00 | 0.00 | 0.00 | 100 | 1014.2 |
| 20260505110154 | 57 | 341 | 0.0 | 0.0 | 0.00 | 0.00 | 0.00 | 100 | 1014.1 |
| 20260505102107 | 56 | 340 | 0.0 | 0.0 | 0.00 | 0.00 | 0.00 | 100 | 1013.8 |
| 20260505101601 | 56 | 340 | 0.0 | 0.0 | 0.00 | 0.00 | 0.00 | 100 | 1013.7 |
| 20260505101322 | 56 | 340 | 0.0 | 0.0 | 0.00 | 0.00 | 0.00 | 100 | 1013.6 |
| 20260505100549 | 56 | 340 | 0.0 | 0.0 | 0.00 | 0.00 | 0.00 | 99 | 1013.6 |
| 20260505100042 | 56 | 340 | 0.0 | 0.0 | 0.00 | 0.00 | 0.00 | 99 | 1013.7 |
| 20260505095535 | 56 | 340 | 0.0 | 0.0 | 0.00 | 0.00 | 0.00 | 99 | 1013.6 |
| 20260505095250 | 57 | 340 | 0.0 | 0.0 | 0.00 | 0.00 | 0.00 | 100 | 1013.6 |
| 20260505094523 | 57 | 340 | 0.0 | 0.0 | 0.00 | 0.00 | 0.00 | 100 | 1013.4 |
| 20260505094016 | 57 | 340 | 0.0 | 0.0 | 0.00 | 0.00 | 0.00 | 100 | 1013.4 |
| 20260505093511 | 57 | 340 | 0.0 | 0.0 | 0.00 | 0.00 | 0.00 | 99 | 1013.4 |
| 20260505093005 | 57 | 340 | 0.0 | 0.0 | 0.00 | 0.00 | 0.00 | 100 | 1013.4 |
| 20260505092459 | 57 | 340 | 0.0 | 0.0 | 0.00 | 0.00 | 0.00 | 100 | 1013.4 |
| 20260505091953 | 57 | 340 | 0.0 | 0.0 | 0.00 | 0.00 | 0.00 | 100 | 1013.4 |
| 20260505091447 | 56 | 340 | 0.0 | 0.0 | 0.00 | 0.00 | 0.00 | 100 | 1013.4 |
| 20260505090941 | 56 | 340 | 0.0 | 0.0 | 0.00 | 0.00 | 0.00 | 99 | 1013.3 |
| 20260505090435 | 56 | 340 | 0.0 | 0.0 | 0.00 | 0.00 | 0.00 | 99 | 1013.3 |
| 20260505085929 | 56 | 340 | 0.0 | 0.0 | 0.00 | 0.00 | 0.00 | 99 | 1013.3 |
| 20260505085423 | 57 | 340 | 0.0 | 0.0 | 0.00 | 0.00 | 0.00 | 99 | 1013.2 |
| 20260505084917 | 56 | 340 | 0.0 | 0.0 | 0.00 | 0.00 | 0.00 | 99 | 1013.2 |
| 20260505084411 | 57 | 340 | 0.0 | 0.0 | 0.00 | 0.00 | 0.00 | 98 | 1013.2 |
| 20260505083905 | 57 | 340 | 0.0 | 0.0 | 0.00 | 0.00 | 0.00 | 99 | 1013.3 |
| 20260505083359 | 57 | 340 | 0.0 | 0.0 | 0.00 | 0.00 | 0.00 | 99 | 1013.3 |
| 20260505082852 | 57 | 340 | 0.0 | 0.0 | 0.00 | 0.00 | 0.00 | 99 | 1013.4 |
| 20260505082613 | 57 | 340 | 0.0 | 0.0 | 0.00 | 0.00 | 0.00 | 98 | 1013.4 |
| 20260505081840 | 58 | 340 | 0.0 | 0.0 | 0.00 | 0.00 | 0.00 | 98 | 1013.3 |
| 20260505081335 | 58 | 340 | 0.0 | 0.0 | 0.00 | 0.00 | 0.00 | 99 | 1013.2 |
| 20260505080830 | 58 | 340 | 0.0 | 0.0 | 0.00 | 0.00 | 0.00 | 99 | 1013.1 |
| 20260505080323 | 58 | 340 | 0.0 | 0.0 | 0.00 | 0.00 | 0.00 | 99 | 1013.1 |
| 20260505080042 | 58 | 340 | 0.0 | 0.0 | 0.00 | 0.00 | 0.00 | 98 | 1013.2 |
| 20260505075311 | 58 | 340 | 0.0 | 0.0 | 0.00 | 0.00 | 0.00 | 99 | 1013.3 |
| 20260505075006 | 58 | 340 | 0.0 | 0.0 | 0.00 | 0.00 | 0.00 | 99 | 1013.2 |
| 20260505074852 | 58 | 340 | 0.0 | 0.0 | 0.00 | 0.00 | 0.00 | 99 | 1013.2 |
| 20260505073752 | 58 | 340 | 0.0 | 0.0 | 0.00 | 0.00 | 0.00 | 98 | 1013.3 |
| 20260505073247 | 58 | 340 | 0.0 | 0.0 | 0.00 | 0.00 | 0.00 | 99 | 1013.4 |
| 20260505072745 | 58 | 340 | 0.0 | 0.0 | 0.00 | 0.00 | 0.00 | 99 | 1013.4 |
| 20260505072235 | 58 | 340 | 0.0 | 0.0 | 0.00 | 0.00 | 0.00 | 98 | 1013.4 |
| 20260505072221 | 58 | 340 | 0.0 | 0.0 | 0.00 | 0.00 | 0.00 | 98 | 1013.5 |
| 20260505071223 | 58 | 340 | 0.0 | 0.0 | 0.00 | 0.00 | 0.00 | 98 | 1013.4 |
| 20260505070717 | 58 | 340 | 0.0 | 0.0 | 0.00 | 0.00 | 0.00 | 98 | 1013.5 |
| 20260505070211 | 58 | 340 | 0.0 | 0.0 | 0.00 | 0.00 | 0.00 | 98 | 1013.4 |
| 20260505065705 | 58 | 340 | 0.0 | 0.0 | 0.00 | 0.00 | 0.00 | 98 | 1013.4 |
| 20260505065159 | 59 | 340 | 0.0 | 0.0 | 0.00 | 0.00 | 0.00 | 98 | 1013.4 |
| 20260505064921 | 59 | 340 | 0.0 | 0.0 | 0.00 | 0.00 | 0.00 | 98 | 1013.4 |
| 20260505064416 | 59 | 340 | 0.0 | 0.0 | 0.00 | 0.00 | 0.00 | 98 | 1013.4 |
| 20260505063650 | 58 | 340 | 0.0 | 0.0 | 0.00 | 0.00 | 0.00 | 98 | 1013.6 |
| 20260505063149 | 58 | 327 | 0.0 | 0.0 | 0.00 | 0.00 | 0.00 | 97 | 1013.6 |
| 20260505062650 | 58 | 327 | 0.0 | 0.0 | 0.00 | 0.00 | 0.00 | 98 | 1013.7 |
| 20260505062149 | 58 | 326 | 0.0 | 0.0 | 0.00 | 0.00 | 0.00 | 97 | 1013.9 |
| 20260505061646 | 58 | 326 | 0.0 | 0.0 | 0.00 | 0.00 | 0.00 | 97 | 1013.9 |
| 20260505061402 | 58 | 326 | 0.0 | 0.0 | 0.00 | 0.00 | 0.00 | 96 | 1014.0 |
| 20260505060647 | 58 | 327 | 0.0 | 0.0 | 0.00 | 0.00 | 0.00 | 96 | 1014.0 |
| 20260505060147 | 58 | 326 | 0.0 | 0.0 | 0.00 | 0.00 | 0.00 | 97 | 1013.9 |
| 20260505055647 | 59 | 327 | 0.0 | 0.0 | 0.00 | 0.00 | 0.00 | 97 | 1014.0 |
| 20260505055406 | 59 | 326 | 0.0 | 0.0 | 0.00 | 0.00 | 0.00 | 97 | 1014.0 |
| 20260505054646 | 58 | 326 | 0.0 | 0.0 | 0.00 | 0.00 | 0.00 | 96 | 1014.1 |
| 20260505054146 | 59 | 326 | 0.0 | 0.0 | 0.00 | 0.00 | 0.00 | 96 | 1014.2 |
| 20260505053644 | 59 | 326 | 0.0 | 0.0 | 0.00 | 0.00 | 0.00 | 95 | 1014.3 |
| 20260505053145 | 59 | 327 | 0.0 | 0.0 | 0.00 | 0.00 | 0.00 | 96 | 1014.2 |
| 20260505052646 | 59 | 326 | 0.0 | 0.0 | 0.00 | 0.00 | 0.00 | 95 | 1014.3 |
| 20260505052140 | 60 | 327 | 0.0 | 0.0 | 0.00 | 0.00 | 0.00 | 96 | 1014.3 |
| 20260505051639 | 59 | 326 | 0.0 | 0.0 | 0.00 | 0.00 | 0.00 | 95 | 1014.5 |
| 20260505051137 | 59 | 326 | 0.0 | 0.0 | 0.00 | 0.00 | 0.00 | 95 | 1014.4 |
| 20260505050636 | 60 | 326 | 0.0 | 0.0 | 0.00 | 0.00 | 0.00 | 94 | 1014.5 |
| 20260505050135 | 60 | 326 | 0.0 | 0.0 | 0.00 | 0.00 | 0.00 | 94 | 1014.5 |
| 20260505041635 | 62 | 48 | 0.0 | 0.0 | 0.00 | 0.00 | 0.00 | 89 | 1014.8 |
| 20260505041134 | 63 | 48 | 0.0 | 0.0 | 0.00 | 0.00 | 0.00 | 88 | 1014.7 |
| 20260505040634 | 64 | 48 | 0.0 | 0.0 | 0.00 | 0.00 | 0.00 | 87 | 1014.6 |
| 20260505040134 | 64 | 49 | 0.0 | 0.0 | 0.00 | 0.00 | 0.00 | 86 | 1014.7 |
| 20260505035635 | 65 | 49 | 0.0 | 0.0 | 0.00 | 0.00 | 0.00 | 86 | 1014.6 |
| 20260505035135 | 65 | 66 | 0.0 | 0.0 | 0.00 | 0.00 | 0.00 | 86 | 1014.5 |
| 20260505034634 | 65 | 75 | 0.0 | 0.0 | 0.00 | 0.00 | 0.00 | 86 | 1014.5 |
| 20260505034619 | 65 | 53 | 0.0 | 0.0 | 0.00 | 0.00 | 0.00 | 86 | 1014.6 |
| 20260505033856 | 65 | 65 | 0.0 | 0.0 | 0.00 | 0.00 | 0.00 | 86 | 1014.6 |
| 20260505033135 | 65 | 72 | 0.0 | 0.0 | 0.00 | 0.00 | 0.00 | 85 | 1014.6 |
| 20260505032634 | 65 | 57 | 0.0 | 0.0 | 0.00 | 0.00 | 0.00 | 85 | 1014.7 |
| 20260505032135 | 65 | 57 | 0.0 | 0.0 | 0.00 | 0.00 | 0.00 | 84 | 1014.8 |
| 20260505031633 | 66 | 57 | 0.9 | 2.6 | 0.00 | 0.00 | 0.00 | 84 | 1014.8 |
| 20260505031133 | 66 | 71 | 0.9 | 2.6 | 0.00 | 0.00 | 0.00 | 84 | 1014.8 |
| 20260505030858 | 65 | 57 | 0.0 | 1.7 | 0.00 | 0.00 | 0.00 | 85 | 1014.8 |
| 20260505030135 | 66 | 57 | 0.0 | 0.0 | 0.00 | 0.00 | 0.00 | 86 | 1014.8 |
| 20260505025633 | 66 | 57 | 0.0 | 0.0 | 0.00 | 0.00 | 0.00 | 82 | 1014.9 |
| 20260505025135 | 66 | 79 | 0.0 | 0.0 | 0.00 | 0.00 | 0.00 | 82 | 1014.9 |
| 20260505024635 | 66 | 57 | 0.0 | 0.0 | 0.00 | 0.00 | 0.00 | 83 | 1014.8 |
| 20260505024134 | 66 | 56 | 0.0 | 0.0 | 0.00 | 0.00 | 0.00 | 82 | 1014.9 |
| 20260505023850 | 67 | 56 | 0.0 | 0.0 | 0.00 | 0.00 | 0.00 | 82 | 1014.8 |
| 20260505023131 | 67 | 65 | 0.0 | 0.0 | 0.00 | 0.00 | 0.00 | 81 | 1014.8 |
| 20260505022632 | 67 | 70 | 0.0 | 0.0 | 0.00 | 0.00 | 0.00 | 80 | 1014.9 |
| 20260505022125 | 67 | 85 | 0.0 | 0.0 | 0.00 | 0.00 | 0.00 | 81 | 1014.8 |
| 20260505021624 | 67 | 77 | 0.0 | 0.0 | 0.00 | 0.00 | 0.00 | 81 | 1014.8 |
| 20260505021123 | 67 | 53 | 0.0 | 2.6 | 0.00 | 0.00 | 0.00 | 81 | 1014.8 |
| 20260505020619 | 67 | 56 | 0.9 | 2.6 | 0.00 | 0.00 | 0.00 | 81 | 1014.7 |
| 20260505020119 | 68 | 74 | 0.0 | 2.6 | 0.00 | 0.00 | 0.00 | 81 | 1014.7 |
| 20260505015620 | 68 | 51 | 0.0 | 0.0 | 0.00 | 0.00 | 0.00 | 80 | 1014.7 |
| 20260505015117 | 68 | 58 | 0.0 | 0.0 | 0.00 | 0.00 | 0.00 | 80 | 1014.8 |
| 20260505014617 | 68 | 55 | 0.0 | 0.9 | 0.00 | 0.00 | 0.00 | 79 | 1014.7 |
| 20260505014112 | 68 | 52 | 0.9 | 2.6 | 0.00 | 0.00 | 0.00 | 79 | 1014.8 |
| 20260505013606 | 68 | 72 | 0.9 | 2.6 | 0.00 | 0.00 | 0.00 | 79 | 1014.6 |
| 20260505013059 | 69 | 56 | 0.9 | 2.6 | 0.00 | 0.00 | 0.00 | 78 | 1014.5 |
| 20260505012554 | 69 | 62 | 0.9 | 2.6 | 0.00 | 0.00 | 0.00 | 78 | 1014.7 |
| 20260505012048 | 69 | 53 | 0.9 | 2.6 | 0.00 | 0.00 | 0.00 | 77 | 1014.6 |
| 20260505011542 | 69 | 68 | 0.9 | 2.6 | 0.00 | 0.00 | 0.00 | 78 | 1014.5 |
| 20260505011532 | 69 | 65 | 0.9 | 3.5 | 0.00 | 0.00 | 0.00 | 77 | 1014.4 |
| 20260505010750 | 70 | 40 | 0.9 | 3.5 | 0.00 | 0.00 | 0.00 | 77 | 1014.4 |
| 20260505010024 | 70 | 55 | 1.7 | 5.2 | 0.00 | 0.00 | 0.00 | 76 | 1014.3 |
| 20260505005519 | 70 | 52 | 1.7 | 5.2 | 0.00 | 0.00 | 0.00 | 76 | 1014.3 |
| 20260505005010 | 70 | 49 | 1.7 | 4.3 | 0.00 | 0.00 | 0.00 | 76 | 1014.3 |
| 20260505004504 | 71 | 68 | 1.7 | 4.3 | 0.00 | 0.00 | 0.00 | 75 | 1014.2 |
| 20260505003958 | 71 | 63 | 1.7 | 4.3 | 0.00 | 0.00 | 0.00 | 74 | 1014.2 |
| 20260505003712 | 71 | 14 | 2.6 | 6.1 | 0.00 | 0.00 | 0.00 | 74 | 1014.1 |
| 20260505003207 | 71 | 62 | 2.6 | 6.1 | 0.00 | 0.00 | 0.00 | 73 | 1014.1 |
| 20260505002440 | 71 | 63 | 2.6 | 7.0 | 0.00 | 0.00 | 0.00 | 72 | 1014.1 |
| 20260505001934 | 71 | 57 | 2.6 | 7.0 | 0.00 | 0.00 | 0.00 | 72 | 1014.2 |
| 20260505001428 | 72 | 68 | 3.5 | 7.8 | 0.00 | 0.00 | 0.00 | 71 | 1014.1 |
| 20260505000922 | 72 | 57 | 3.5 | 7.8 | 0.00 | 0.00 | 0.00 | 71 | 1014.0 |
| 20260505000415 | 72 | 46 | 3.5 | 6.1 | 0.00 | 0.00 | 0.00 | 71 | 1013.8 |
| 20260504235911 | 72 | 46 | 4.3 | 10.4 | 0.00 | 0.00 | 0.00 | 70 | 1013.7 |
| 20260504235404 | 73 | 54 | 5.2 | 11.3 | 0.00 | 0.00 | 0.00 | 69 | 1013.6 |
| 20260504234858 | 73 | 48 | 5.2 | 11.3 | 0.00 | 0.00 | 0.00 | 69 | 1013.6 |
| 20260504234352 | 73 | 63 | 5.2 | 10.4 | 0.00 | 0.00 | 0.00 | 68 | 1013.6 |
| 20260504233846 | 73 | 45 | 5.2 | 12.2 | 0.00 | 0.00 | 0.00 | 67 | 1013.4 |
| 20260504233340 | 74 | 43 | 5.2 | 12.2 | 0.00 | 0.00 | 0.00 | 67 | 1013.4 |
| 20260504232833 | 74 | 86 | 5.2 | 11.3 | 0.00 | 0.00 | 0.00 | 67 | 1013.3 |
| 20260504232328 | 74 | 48 | 5.2 | 11.3 | 0.00 | 0.00 | 0.00 | 67 | 1013.2 |
| 20260504231822 | 74 | 39 | 6.1 | 10.4 | 0.00 | 0.00 | 0.00 | 67 | 1013.2 |
| 20260504231316 | 74 | 70 | 6.1 | 11.3 | 0.00 | 0.00 | 0.00 | 66 | 1013.2 |
| 20260504230810 | 74 | 63 | 6.1 | 11.3 | 0.00 | 0.00 | 0.00 | 66 | 1013.2 |
| 20260504230304 | 75 | 38 | 6.1 | 12.2 | 0.00 | 0.00 | 0.00 | 66 | 1013.1 |
| 20260504225758 | 75 | 56 | 5.2 | 12.2 | 0.00 | 0.00 | 0.00 | 66 | 1013.2 |
| 20260504225252 | 75 | 32 | 4.3 | 9.6 | 0.00 | 0.00 | 0.00 | 66 | 1013.2 |
| 20260504224746 | 75 | 51 | 5.2 | 11.3 | 0.00 | 0.00 | 0.00 | 66 | 1013.2 |
| 20260504224504 | 75 | 76 | 6.1 | 12.2 | 0.00 | 0.00 | 0.00 | 65 | 1013.3 |
| 20260504223951 | 75 | 56 | 6.1 | 12.2 | 0.00 | 0.00 | 0.00 | 65 | 1013.3 |
| 20260504223449 | 76 | 84 | 6.1 | 12.2 | 0.00 | 0.00 | 0.00 | 65 | 1013.3 |
| 20260504222944 | 76 | 38 | 6.1 | 12.2 | 0.00 | 0.00 | 0.00 | 65 | 1013.3 |
| 20260504222216 | 76 | 49 | 6.1 | 11.3 | 0.00 | 0.00 | 0.00 | 65 | 1013.5 |
| 20260504222200 | 76 | 63 | 6.1 | 14.8 | 0.00 | 0.00 | 0.00 | 65 | 1013.5 |
| 20260504221204 | 76 | 69 | 7.0 | 14.8 | 0.00 | 0.00 | 0.00 | 63 | 1013.3 |
| 20260504220658 | 76 | 56 | 6.1 | 13.0 | 0.00 | 0.00 | 0.00 | 63 | 1013.3 |
| 20260504220152 | 77 | 68 | 5.2 | 12.2 | 0.00 | 0.00 | 0.00 | 64 | 1013.4 |
| 20260504215645 | 77 | 56 | 6.1 | 12.2 | 0.00 | 0.00 | 0.00 | 64 | 1013.3 |
| 20260504215140 | 77 | 80 | 6.1 | 12.2 | 0.00 | 0.00 | 0.00 | 63 | 1013.3 |
| 20260504214634 | 77 | 82 | 5.2 | 11.3 | 0.00 | 0.00 | 0.00 | 63 | 1013.3 |
| 20260504214128 | 77 | 60 | 5.2 | 11.3 | 0.00 | 0.00 | 0.00 | 63 | 1013.2 |
| 20260504213622 | 77 | 18 | 5.2 | 11.3 | 0.00 | 0.00 | 0.00 | 64 | 1013.2 |
| 20260504213116 | 76 | 77 | 5.2 | 11.3 | 0.00 | 0.00 | 0.00 | 64 | 1013.3 |
| 20260504212610 | 77 | 56 | 5.2 | 11.3 | 0.00 | 0.00 | 0.00 | 62 | 1013.3 |
| 20260504212326 | 78 | 56 | 5.2 | 13.0 | 0.00 | 0.00 | 0.00 | 62 | 1013.2 |
| 20260504211557 | 77 | 45 | 5.2 | 13.0 | 0.00 | 0.00 | 0.00 | 62 | 1013.2 |
| 20260504211052 | 78 | 25 | 4.3 | 8.7 | 0.00 | 0.00 | 0.00 | 62 | 1013.2 |
| 20260504210546 | 78 | 32 | 4.3 | 8.7 | 0.00 | 0.00 | 0.00 | 61 | 1013.4 |
| 20260504210040 | 78 | 34 | 4.3 | 7.8 | 0.00 | 0.00 | 0.00 | 59 | 1013.3 |
| 20260504205534 | 78 | 73 | 5.2 | 9.6 | 0.00 | 0.00 | 0.00 | 59 | 1013.4 |
| 20260504205258 | 78 | 77 | 5.2 | 10.4 | 0.00 | 0.00 | 0.00 | 59 | 1013.5 |
| 20260504204522 | 79 | 77 | 4.3 | 10.4 | 0.00 | 0.00 | 0.00 | 59 | 1013.4 |
| 20260504204016 | 79 | 57 | 4.3 | 10.4 | 0.00 | 0.00 | 0.00 | 59 | 1013.4 |
| 20260504203509 | 79 | 83 | 4.3 | 10.4 | 0.00 | 0.00 | 0.00 | 58 | 1013.4 |
| 20260504203004 | 78 | 115 | 4.3 | 11.3 | 0.00 | 0.00 | 0.00 | 57 | 1013.5 |
| 20260504202725 | 78 | 48 | 3.5 | 11.3 | 0.00 | 0.00 | 0.00 | 58 | 1013.5 |
| 20260504201952 | 78 | 70 | 3.5 | 11.3 | 0.00 | 0.00 | 0.00 | 60 | 1013.6 |
| 20260504201934 | 78 | 56 | 5.2 | 11.3 | 0.00 | 0.00 | 0.00 | 59 | 1013.7 |
| 20260504200940 | 78 | 75 | 6.1 | 11.3 | 0.00 | 0.00 | 0.00 | 60 | 1013.7 |
| 20260504200434 | 78 | 56 | 5.2 | 10.4 | 0.00 | 0.00 | 0.00 | 60 | 1013.7 |
| 20260504195928 | 78 | 34 | 5.2 | 10.4 | 0.00 | 0.00 | 0.00 | 61 | 1013.7 |
| 20260504195421 | 78 | 51 | 5.2 | 12.2 | 0.00 | 0.00 | 0.00 | 60 | 1013.7 |
| 20260504194916 | 79 | 72 | 4.3 | 12.2 | 0.00 | 0.00 | 0.00 | 59 | 1013.8 |
| 20260504194410 | 79 | 108 | 5.2 | 11.3 | 0.00 | 0.00 | 0.00 | 58 | 1013.9 |
| 20260504193904 | 78 | 57 | 6.1 | 11.3 | 0.00 | 0.00 | 0.00 | 59 | 1013.9 |
| 20260504193358 | 78 | 57 | 6.1 | 11.3 | 0.00 | 0.00 | 0.00 | 58 | 1014.0 |
| 20260504192852 | 78 | 32 | 5.2 | 11.3 | 0.00 | 0.00 | 0.00 | 58 | 1014.0 |
| 20260504192346 | 78 | 122 | 5.2 | 10.4 | 0.00 | 0.00 | 0.00 | 60 | 1014.0 |
| 20260504191839 | 78 | 58 | 5.2 | 10.4 | 0.00 | 0.00 | 0.00 | 58 | 1014.1 |
| 20260504191333 | 77 | 51 | 5.2 | 10.4 | 0.00 | 0.00 | 0.00 | 57 | 1014.2 |
| 20260504190828 | 78 | 58 | 4.3 | 10.4 | 0.00 | 0.00 | 0.00 | 57 | 1014.3 |
| 20260504190322 | 78 | 56 | 3.5 | 9.6 | 0.00 | 0.00 | 0.00 | 57 | 1014.3 |
| 20260504185815 | 79 | 4 | 3.5 | 7.8 | 0.00 | 0.00 | 0.00 | 57 | 1014.4 |
| 20260504185310 | 79 | 23 | 5.2 | 10.4 | 0.00 | 0.00 | 0.00 | 56 | 1014.6 |
| 20260504184804 | 78 | 60 | 5.2 | 11.3 | 0.00 | 0.00 | 0.00 | 59 | 1014.6 |
| 20260504184258 | 78 | 58 | 4.3 | 11.3 | 0.00 | 0.00 | 0.00 | 58 | 1014.7 |
| 20260504183752 | 78 | 75 | 3.5 | 8.7 | 0.00 | 0.00 | 0.00 | 55 | 1014.7 |
| 20260504183246 | 78 | 82 | 4.3 | 11.3 | 0.00 | 0.00 | 0.00 | 56 | 1014.8 |
| 20260504183001 | 78 | 42 | 4.3 | 11.3 | 0.00 | 0.00 | 0.00 | 58 | 1014.8 |
| 20260504182237 | 78 | 44 | 4.3 | 10.4 | 0.00 | 0.00 | 0.00 | 59 | 1015.0 |
| 20260504181741 | 78 | 54 | 5.2 | 10.4 | 0.00 | 0.00 | 0.00 | 59 | 1015.1 |
| 20260504181237 | 78 | 78 | 3.5 | 8.7 | 0.00 | 0.00 | 0.00 | 58 | 1015.0 |
| 20260504180736 | 78 | 68 | 4.3 | 10.4 | 0.00 | 0.00 | 0.00 | 58 | 1015.0 |
| 20260504180730 | 78 | 20 | 5.2 | 14.8 | 0.00 | 0.00 | 0.00 | 59 | 1015.1 |
| 20260504175746 | 77 | 46 | 5.2 | 14.8 | 0.00 | 0.00 | 0.00 | 60 | 1015.1 |
| 20260504175238 | 77 | 69 | 4.3 | 7.8 | 0.00 | 0.00 | 0.00 | 57 | 1015.1 |
| 20260504174735 | 77 | 65 | 3.5 | 7.8 | 0.00 | 0.00 | 0.00 | 59 | 1015.2 |
| 20260504174233 | 77 | 72 | 3.5 | 11.3 | 0.00 | 0.00 | 0.00 | 58 | 1015.1 |
| 20260504173734 | 78 | 39 | 3.5 | 11.3 | 0.00 | 0.00 | 0.00 | 59 | 1015.1 |
| 20260504173240 | 77 | 26 | 4.3 | 13.0 | 0.00 | 0.00 | 0.00 | 58 | 1015.4 |
| 20260504173234 | 77 | 352 | 4.3 | 10.4 | 0.00 | 0.00 | 0.00 | 58 | 1015.2 |
| 20260504172447 | 78 | 53 | 3.5 | 10.4 | 0.00 | 0.00 | 0.00 | 57 | 1015.5 |
| 20260504172329 | 77 | 74 | 3.5 | 13.0 | 0.00 | 0.00 | 0.00 | 60 | 1015.4 |
| 20260504171233 | 77 | 50 | 4.3 | 8.7 | 0.00 | 0.00 | 0.00 | 58 | 1015.4 |
| 20260504170734 | 77 | 84 | 5.2 | 13.0 | 0.00 | 0.00 | 0.00 | 57 | 1015.5 |
| 20260504170450 | 77 | 57 | 4.3 | 13.0 | 0.00 | 0.00 | 0.00 | 59 | 1015.6 |
| 20260504160227 | 76 | 82 | 4.3 | 10.4 | 0.00 | 0.00 | 0.00 | 57 | 1016.2 |